sensor_id;sensor_type;location;lat;lon;timestamp;pressure;altitude;pressure_sealevel;temperature;humidity
18504;BME280;9381;54.244;10.074;2023-01-10T00:03:32;100043.25;;;7.59;100.00
18504;BME280;9381;54.244;10.074;2023-01-10T00:08:32;100045.00;;;7.71;100.00
18504;BME280;9381;54.244;10.074;2023-01-10T00:13:32;100065.16;;;7.62;100.00
18504;BME280;9381;54.244;10.074;2023-01-10T00:18:32;100081.69;;;7.66;100.00
18504;BME280;9381;54.244;10.074;2023-01-10T00:23:33;100082.38;;;7.48;100.00
18504;BME280;9381;54.244;10.074;2023-01-10T00:28:33;100091.03;;;7.57;100.00
18504;BME280;9381;54.244;10.074;2023-01-10T00:33:37;100093.47;;;7.71;100.00
18504;BME280;9381;54.244;10.074;2023-01-10T00:38:37;100107.19;;;7.57;100.00
18504;BME280;9381;54.244;10.074;2023-01-10T00:43:38;100114.25;;;7.51;100.00
18504;BME280;9381;54.244;10.074;2023-01-10T00:48:56;100124.22;;;7.38;100.00
18504;BME280;9381;54.244;10.074;2023-01-10T00:53:56;100124.22;;;7.31;100.00
18504;BME280;9381;54.244;10.074;2023-01-10T00:58:57;100144.94;;;7.31;100.00
18504;BME280;9381;54.244;10.074;2023-01-10T01:03:57;100164.16;;;7.34;100.00
18504;BME280;9381;54.244;10.074;2023-01-10T01:09:00;100164.97;;;7.41;100.00
18504;BME280;9381;54.244;10.074;2023-01-10T01:14:01;100169.97;;;7.44;100.00
18504;BME280;9381;54.244;10.074;2023-01-10T01:19:01;100185.06;;;7.32;100.00
18504;BME280;9381;54.244;10.074;2023-01-10T01:24:01;100192.06;;;7.59;100.00
18504;BME280;9381;54.244;10.074;2023-01-10T01:29:02;100208.03;;;7.35;100.00
18504;BME280;9381;54.244;10.074;2023-01-10T01:34:02;100217.56;;;7.31;100.00
18504;BME280;9381;54.244;10.074;2023-01-10T01:39:02;100236.78;;;7.21;100.00
18504;BME280;9381;54.244;10.074;2023-01-10T01:44:13;100243.03;;;7.22;100.00
18504;BME280;9381;54.244;10.074;2023-01-10T01:49:19;100242.56;;;7.05;100.00
18504;BME280;9381;54.244;10.074;2023-01-10T01:54:20;100247.94;;;7.12;100.00
18504;BME280;9381;54.244;10.074;2023-01-10T01:59:27;100262.03;;;7.20;100.00
18504;BME280;9381;54.244;10.074;2023-01-10T02:04:37;100267.63;;;7.06;100.00
18504;BME280;9381;54.244;10.074;2023-01-10T02:15:00;100277.34;;;7.13;100.00
18504;BME280;9381;54.244;10.074;2023-01-10T02:20:05;100286.44;;;7.19;100.00
18504;BME280;9381;54.244;10.074;2023-01-10T02:25:36;100297.81;;;6.95;100.00
18504;BME280;9381;54.244;10.074;2023-01-10T02:41:40;100310.41;;;6.94;100.00
18504;BME280;9381;54.244;10.074;2023-01-10T02:46:45;100320.28;;;6.87;100.00
18504;BME280;9381;54.244;10.074;2023-01-10T02:51:47;100330.50;;;7.05;100.00
18504;BME280;9381;54.244;10.074;2023-01-10T02:56:57;100331.16;;;7.26;100.00
18504;BME280;9381;54.244;10.074;2023-01-10T03:02:13;100341.06;;;7.19;100.00
18504;BME280;9381;54.244;10.074;2023-01-10T03:07:36;100353.91;;;7.30;100.00
18504;BME280;9381;54.244;10.074;2023-01-10T03:12:49;100365.03;;;7.14;100.00
18504;BME280;9381;54.244;10.074;2023-01-10T03:17:55;100365.06;;;7.21;100.00
18504;BME280;9381;54.244;10.074;2023-01-10T03:22:58;100366.31;;;7.18;100.00
18504;BME280;9381;54.244;10.074;2023-01-10T03:28:29;100374.16;;;7.20;100.00
18504;BME280;9381;54.244;10.074;2023-01-10T03:33:32;100382.81;;;7.02;100.00
18504;BME280;9381;54.244;10.074;2023-01-10T03:39:22;100387.16;;;7.03;100.00
18504;BME280;9381;54.244;10.074;2023-01-10T03:44:28;100403.09;;;7.11;100.00
18504;BME280;9381;54.244;10.074;2023-01-10T03:49:45;100407.63;;;7.04;100.00
18504;BME280;9381;54.244;10.074;2023-01-10T03:54:47;100416.47;;;6.92;100.00
18504;BME280;9381;54.244;10.074;2023-01-10T03:59:51;100424.09;;;6.88;100.00
18504;BME280;9381;54.244;10.074;2023-01-10T04:04:51;100437.34;;;6.90;100.00
18504;BME280;9381;54.244;10.074;2023-01-10T04:09:52;100463.81;;;6.86;100.00
18504;BME280;9381;54.244;10.074;2023-01-10T04:14:53;100469.16;;;6.80;100.00
18504;BME280;9381;54.244;10.074;2023-01-10T04:19:53;100472.88;;;6.79;100.00
18504;BME280;9381;54.244;10.074;2023-01-10T04:24:54;100475.75;;;6.77;100.00
18504;BME280;9381;54.244;10.074;2023-01-10T04:29:54;100480.25;;;6.70;100.00
18504;BME280;9381;54.244;10.074;2023-01-10T04:34:54;100501.41;;;6.52;100.00
18504;BME280;9381;54.244;10.074;2023-01-10T04:39:55;100506.19;;;6.57;100.00
18504;BME280;9381;54.244;10.074;2023-01-10T04:44:55;100512.75;;;6.75;100.00
18504;BME280;9381;54.244;10.074;2023-01-10T04:49:55;100518.06;;;6.41;100.00
18504;BME280;9381;54.244;10.074;2023-01-10T04:54:55;100516.13;;;6.56;100.00
18504;BME280;9381;54.244;10.074;2023-01-10T04:59:56;100534.16;;;6.35;100.00
18504;BME280;9381;54.244;10.074;2023-01-10T05:04:56;100540.72;;;6.32;100.00
18504;BME280;9381;54.244;10.074;2023-01-10T05:09:57;100547.00;;;6.39;100.00
18504;BME280;9381;54.244;10.074;2023-01-10T05:14:57;100552.13;;;6.34;100.00
18504;BME280;9381;54.244;10.074;2023-01-10T05:19:57;100562.94;;;6.41;100.00
18504;BME280;9381;54.244;10.074;2023-01-10T05:24:58;100579.41;;;6.38;100.00
18504;BME280;9381;54.244;10.074;2023-01-10T05:29:58;100587.56;;;6.44;100.00
18504;BME280;9381;54.244;10.074;2023-01-10T05:34:58;100608.53;;;6.34;100.00
18504;BME280;9381;54.244;10.074;2023-01-10T05:39:59;100614.78;;;6.41;100.00
18504;BME280;9381;54.244;10.074;2023-01-10T05:44:59;100617.22;;;6.36;100.00
18504;BME280;9381;54.244;10.074;2023-01-10T05:49:59;100621.31;;;6.32;100.00
18504;BME280;9381;54.244;10.074;2023-01-10T05:54:59;100624.38;;;6.29;100.00
18504;BME280;9381;54.244;10.074;2023-01-10T06:00:00;100628.41;;;6.61;100.00
18504;BME280;9381;54.244;10.074;2023-01-10T06:05:00;100637.13;;;6.42;100.00
18504;BME280;9381;54.244;10.074;2023-01-10T06:10:00;100647.03;;;6.62;100.00
18504;BME280;9381;54.244;10.074;2023-01-10T06:15:01;100655.59;;;6.72;100.00
18504;BME280;9381;54.244;10.074;2023-01-10T06:20:03;100670.31;;;6.55;100.00
18504;BME280;9381;54.244;10.074;2023-01-10T06:25:03;100675.31;;;6.58;100.00
18504;BME280;9381;54.244;10.074;2023-01-10T06:30:04;100678.09;;;6.50;100.00
18504;BME280;9381;54.244;10.074;2023-01-10T06:35:05;100685.47;;;6.42;100.00
18504;BME280;9381;54.244;10.074;2023-01-10T06:40:06;100700.38;;;6.44;100.00
18504;BME280;9381;54.244;10.074;2023-01-10T06:45:07;100710.63;;;6.34;100.00
18504;BME280;9381;54.244;10.074;2023-01-10T06:50:08;100722.16;;;6.35;100.00
18504;BME280;9381;54.244;10.074;2023-01-10T06:55:09;100731.25;;;6.34;100.00
18504;BME280;9381;54.244;10.074;2023-01-10T07:00:10;100734.13;;;6.32;100.00
18504;BME280;9381;54.244;10.074;2023-01-10T07:05:10;100733.59;;;6.22;100.00
18504;BME280;9381;54.244;10.074;2023-01-10T07:10:11;100745.63;;;6.26;100.00
18504;BME280;9381;54.244;10.074;2023-01-10T07:15:11;100751.84;;;6.12;100.00
18504;BME280;9381;54.244;10.074;2023-01-10T07:20:12;100749.09;;;6.06;100.00
18504;BME280;9381;54.244;10.074;2023-01-10T07:25:12;100762.22;;;6.01;100.00
18504;BME280;9381;54.244;10.074;2023-01-10T07:30:13;100765.44;;;6.11;100.00
18504;BME280;9381;54.244;10.074;2023-01-10T07:35:13;100771.56;;;6.19;100.00
18504;BME280;9381;54.244;10.074;2023-01-10T07:40:13;100773.06;;;6.07;100.00
18504;BME280;9381;54.244;10.074;2023-01-10T07:45:14;100769.00;;;6.11;100.00
18504;BME280;9381;54.244;10.074;2023-01-10T07:50:15;100775.28;;;6.18;100.00
18504;BME280;9381;54.244;10.074;2023-01-10T07:55:16;100784.34;;;5.88;100.00
18504;BME280;9381;54.244;10.074;2023-01-10T08:00:17;100778.91;;;5.82;100.00
18504;BME280;9381;54.244;10.074;2023-01-10T08:05:18;100789.72;;;5.88;100.00
18504;BME280;9381;54.244;10.074;2023-01-10T08:10:18;100791.59;;;6.02;100.00
18504;BME280;9381;54.244;10.074;2023-01-10T08:15:19;100805.75;;;5.96;100.00
18504;BME280;9381;54.244;10.074;2023-01-10T08:20:19;100809.91;;;6.13;100.00
18504;BME280;9381;54.244;10.074;2023-01-10T08:25:20;100811.56;;;6.14;100.00
18504;BME280;9381;54.244;10.074;2023-01-10T08:30:20;100809.91;;;6.13;100.00
18504;BME280;9381;54.244;10.074;2023-01-10T08:35:20;100815.09;;;6.00;100.00
18504;BME280;9381;54.244;10.074;2023-01-10T08:40:21;100834.91;;;5.99;100.00
18504;BME280;9381;54.244;10.074;2023-01-10T08:45:21;100837.53;;;6.07;100.00
18504;BME280;9381;54.244;10.074;2023-01-10T08:50:22;100834.38;;;6.18;100.00
18504;BME280;9381;54.244;10.074;2023-01-10T08:55:22;100839.91;;;6.31;100.00
18504;BME280;9381;54.244;10.074;2023-01-10T09:00:22;100855.38;;;6.15;100.00
18504;BME280;9381;54.244;10.074;2023-01-10T09:05:23;100871.41;;;6.08;100.00
18504;BME280;9381;54.244;10.074;2023-01-10T09:10:25;100859.72;;;6.16;100.00
18504;BME280;9381;54.244;10.074;2023-01-10T09:15:31;100845.44;;;6.15;100.00
18504;BME280;9381;54.244;10.074;2023-01-10T09:20:35;100830.47;;;6.35;100.00
18504;BME280;9381;54.244;10.074;2023-01-10T09:25:36;100839.53;;;6.34;100.00
18504;BME280;9381;54.244;10.074;2023-01-10T09:30:37;100854.25;;;6.38;100.00
18504;BME280;9381;54.244;10.074;2023-01-10T09:35:39;100861.94;;;6.41;100.00
18504;BME280;9381;54.244;10.074;2023-01-10T09:46:25;100875.28;;;6.49;100.00
18504;BME280;9381;54.244;10.074;2023-01-10T09:51:36;100900.38;;;6.56;100.00
18504;BME280;9381;54.244;10.074;2023-01-10T09:56:38;100900.28;;;6.64;100.00
18504;BME280;9381;54.244;10.074;2023-01-10T10:01:39;100917.63;;;6.47;100.00
18504;BME280;9381;54.244;10.074;2023-01-10T10:06:39;100911.50;;;6.68;100.00
18504;BME280;9381;54.244;10.074;2023-01-10T10:12:20;100912.34;;;6.54;100.00
18504;BME280;9381;54.244;10.074;2023-01-10T10:38:34;100906.22;;;7.10;100.00
18504;BME280;9381;54.244;10.074;2023-01-10T10:43:38;100905.50;;;7.01;100.00
18504;BME280;9381;54.244;10.074;2023-01-10T10:48:42;100912.53;;;7.02;100.00
18504;BME280;9381;54.244;10.074;2023-01-10T10:53:47;100918.84;;;7.30;100.00
18504;BME280;9381;54.244;10.074;2023-01-10T10:58:50;100924.09;;;7.17;100.00
18504;BME280;9381;54.244;10.074;2023-01-10T11:04:04;100921.28;;;7.25;100.00
18504;BME280;9381;54.244;10.074;2023-01-10T11:09:05;100933.34;;;7.29;100.00
18504;BME280;9381;54.244;10.074;2023-01-10T11:14:08;100922.88;;;7.20;100.00
18504;BME280;9381;54.244;10.074;2023-01-10T11:19:25;100927.38;;;7.13;100.00
18504;BME280;9381;54.244;10.074;2023-01-10T11:24:32;100933.91;;;7.25;100.00
18504;BME280;9381;54.244;10.074;2023-01-10T11:29:42;100933.16;;;7.16;100.00
18504;BME280;9381;54.244;10.074;2023-01-10T11:34:49;100935.84;;;7.31;100.00
18504;BME280;9381;54.244;10.074;2023-01-10T11:40:14;100934.59;;;7.33;100.00
18504;BME280;9381;54.244;10.074;2023-01-10T11:50:22;100935.28;;;7.56;100.00
18504;BME280;9381;54.244;10.074;2023-01-10T11:55:28;100932.06;;;7.46;100.00
18504;BME280;9381;54.244;10.074;2023-01-10T12:00:37;100930.41;;;7.66;100.00
18504;BME280;9381;54.244;10.074;2023-01-10T12:05:39;100934.44;;;7.56;100.00
18504;BME280;9381;54.244;10.074;2023-01-10T12:10:40;100934.13;;;7.65;100.00
18504;BME280;9381;54.244;10.074;2023-01-10T12:15:41;100934.66;;;7.54;100.00
18504;BME280;9381;54.244;10.074;2023-01-10T12:20:50;100918.88;;;7.72;100.00
18504;BME280;9381;54.244;10.074;2023-01-10T12:25:52;100918.13;;;7.85;100.00
18504;BME280;9381;54.244;10.074;2023-01-10T12:30:57;100911.16;;;7.90;100.00
18504;BME280;9381;54.244;10.074;2023-01-10T12:41:18;100932.88;;;8.16;100.00
18504;BME280;9381;54.244;10.074;2023-01-10T12:46:44;100931.41;;;7.86;100.00
18504;BME280;9381;54.244;10.074;2023-01-10T12:51:51;100934.59;;;8.17;100.00
18504;BME280;9381;54.244;10.074;2023-01-10T12:56:54;100916.72;;;8.16;100.00
18504;BME280;9381;54.244;10.074;2023-01-10T13:01:58;100919.41;;;8.16;100.00
18504;BME280;9381;54.244;10.074;2023-01-10T13:07:01;100917.38;;;8.18;100.00
18504;BME280;9381;54.244;10.074;2023-01-10T13:12:17;100920.81;;;8.06;100.00
18504;BME280;9381;54.244;10.074;2023-01-10T13:22:36;100921.03;;;8.32;100.00
18504;BME280;9381;54.244;10.074;2023-01-10T13:27:36;100926.63;;;8.09;100.00
18504;BME280;9381;54.244;10.074;2023-01-10T13:32:36;100933.00;;;8.23;100.00
18504;BME280;9381;54.244;10.074;2023-01-10T13:37:38;100924.00;;;8.43;100.00
18504;BME280;9381;54.244;10.074;2023-01-10T13:42:40;100937.09;;;8.46;100.00
18504;BME280;9381;54.244;10.074;2023-01-10T13:48:01;100921.06;;;8.38;100.00
18504;BME280;9381;54.244;10.074;2023-01-10T14:14:30;100928.91;;;8.33;100.00
18504;BME280;9381;54.244;10.074;2023-01-10T14:19:32;100924.66;;;8.45;100.00
18504;BME280;9381;54.244;10.074;2023-01-10T14:24:41;100920.50;;;8.49;100.00
18504;BME280;9381;54.244;10.074;2023-01-10T14:29:52;100915.28;;;8.41;100.00
18504;BME280;9381;54.244;10.074;2023-01-10T14:34:54;100917.75;;;8.36;100.00
18504;BME280;9381;54.244;10.074;2023-01-10T14:39:55;100904.97;;;8.51;100.00
18504;BME280;9381;54.244;10.074;2023-01-10T14:45:16;100897.28;;;8.48;100.00
18504;BME280;9381;54.244;10.074;2023-01-10T14:50:29;100896.41;;;8.41;100.00
18504;BME280;9381;54.244;10.074;2023-01-10T14:55:31;100892.34;;;8.24;100.00
18504;BME280;9381;54.244;10.074;2023-01-10T15:00:33;100890.94;;;8.28;100.00
18504;BME280;9381;54.244;10.074;2023-01-10T15:05:45;100894.91;;;8.32;100.00
18504;BME280;9381;54.244;10.074;2023-01-10T15:10:46;100887.84;;;8.31;100.00
18504;BME280;9381;54.244;10.074;2023-01-10T15:15:49;100878.28;;;8.29;100.00
18504;BME280;9381;54.244;10.074;2023-01-10T15:20:50;100886.97;;;8.24;100.00
18504;BME280;9381;54.244;10.074;2023-01-10T15:26:00;100880.31;;;8.20;100.00
18504;BME280;9381;54.244;10.074;2023-01-10T15:31:03;100880.69;;;8.17;100.00
18504;BME280;9381;54.244;10.074;2023-01-10T15:36:06;100877.34;;;8.15;100.00
18504;BME280;9381;54.244;10.074;2023-01-10T15:41:07;100882.72;;;8.15;100.00
18504;BME280;9381;54.244;10.074;2023-01-10T15:46:20;100871.09;;;8.08;100.00
18504;BME280;9381;54.244;10.074;2023-01-10T15:51:39;100857.09;;;8.19;100.00
18504;BME280;9381;54.244;10.074;2023-01-10T15:56:47;100855.03;;;8.21;100.00
18504;BME280;9381;54.244;10.074;2023-01-10T16:07:26;100854.88;;;8.02;100.00
18504;BME280;9381;54.244;10.074;2023-01-10T16:12:40;100850.38;;;8.09;100.00
18504;BME280;9381;54.244;10.074;2023-01-10T16:18:00;100852.59;;;7.99;100.00
18504;BME280;9381;54.244;10.074;2023-01-10T16:23:01;100843.66;;;7.98;100.00
18504;BME280;9381;54.244;10.074;2023-01-10T16:28:03;100840.16;;;7.98;100.00
18504;BME280;9381;54.244;10.074;2023-01-10T16:33:20;100833.97;;;8.04;100.00
18504;BME280;9381;54.244;10.074;2023-01-10T16:38:26;100839.25;;;7.91;100.00
18504;BME280;9381;54.244;10.074;2023-01-10T16:43:27;100838.09;;;8.00;100.00
18504;BME280;9381;54.244;10.074;2023-01-10T16:48:30;100835.34;;;7.93;100.00
18504;BME280;9381;54.244;10.074;2023-01-10T16:53:31;100834.44;;;7.80;100.00
18504;BME280;9381;54.244;10.074;2023-01-10T16:58:31;100822.00;;;7.79;100.00
18504;BME280;9381;54.244;10.074;2023-01-10T17:03:35;100821.09;;;7.72;100.00
18504;BME280;9381;54.244;10.074;2023-01-10T17:08:38;100812.44;;;7.76;100.00
18504;BME280;9381;54.244;10.074;2023-01-10T17:13:42;100799.56;;;7.72;100.00
18504;BME280;9381;54.244;10.074;2023-01-10T17:18:43;100798.41;;;7.53;100.00
18504;BME280;9381;54.244;10.074;2023-01-10T17:23:44;100778.06;;;7.78;100.00
18504;BME280;9381;54.244;10.074;2023-01-10T17:28:45;100779.25;;;7.69;100.00
18504;BME280;9381;54.244;10.074;2023-01-10T17:33:47;100762.47;;;7.67;100.00
18504;BME280;9381;54.244;10.074;2023-01-10T17:38:48;100768.13;;;7.72;100.00
18504;BME280;9381;54.244;10.074;2023-01-10T17:43:48;100749.84;;;7.68;100.00
18504;BME280;9381;54.244;10.074;2023-01-10T17:48:49;100745.69;;;7.65;100.00
18504;BME280;9381;54.244;10.074;2023-01-10T17:53:50;100730.56;;;7.64;100.00
18504;BME280;9381;54.244;10.074;2023-01-10T17:58:50;100717.59;;;7.74;100.00
18504;BME280;9381;54.244;10.074;2023-01-10T18:03:52;100719.00;;;7.70;100.00
18504;BME280;9381;54.244;10.074;2023-01-10T18:08:52;100699.97;;;7.72;100.00
18504;BME280;9381;54.244;10.074;2023-01-10T18:13:53;100698.50;;;7.69;100.00
18504;BME280;9381;54.244;10.074;2023-01-10T18:18:54;100693.09;;;7.69;100.00
18504;BME280;9381;54.244;10.074;2023-01-10T18:23:55;100676.94;;;7.63;100.00
18504;BME280;9381;54.244;10.074;2023-01-10T18:28:58;100669.88;;;7.62;100.00
18504;BME280;9381;54.244;10.074;2023-01-10T18:33:58;100663.03;;;7.59;100.00
18504;BME280;9381;54.244;10.074;2023-01-10T18:38:59;100650.84;;;7.63;100.00
18504;BME280;9381;54.244;10.074;2023-01-10T18:43:59;100651.66;;;7.64;100.00
18504;BME280;9381;54.244;10.074;2023-01-10T18:49:00;100648.31;;;7.55;100.00
18504;BME280;9381;54.244;10.074;2023-01-10T18:54:00;100650.16;;;7.55;100.00
18504;BME280;9381;54.244;10.074;2023-01-10T18:59:01;100641.72;;;7.58;100.00
18504;BME280;9381;54.244;10.074;2023-01-10T19:04:01;100637.56;;;7.55;100.00
18504;BME280;9381;54.244;10.074;2023-01-10T19:09:04;100627.59;;;7.49;100.00
18504;BME280;9381;54.244;10.074;2023-01-10T19:14:04;100611.91;;;7.66;100.00
18504;BME280;9381;54.244;10.074;2023-01-10T19:19:06;100605.47;;;7.60;100.00
18504;BME280;9381;54.244;10.074;2023-01-10T19:24:22;100602.00;;;7.66;100.00
18504;BME280;9381;54.244;10.074;2023-01-10T19:29:23;100593.28;;;7.64;100.00
18504;BME280;9381;54.244;10.074;2023-01-10T19:34:23;100589.56;;;7.59;100.00
18504;BME280;9381;54.244;10.074;2023-01-10T19:39:24;100593.69;;;7.61;100.00
18504;BME280;9381;54.244;10.074;2023-01-10T19:44:24;100575.50;;;7.63;100.00
18504;BME280;9381;54.244;10.074;2023-01-10T19:49:24;100576.72;;;7.67;100.00
18504;BME280;9381;54.244;10.074;2023-01-10T19:54:28;100564.75;;;7.76;100.00
18504;BME280;9381;54.244;10.074;2023-01-10T19:59:30;100558.31;;;7.64;100.00
18504;BME280;9381;54.244;10.074;2023-01-10T20:04:32;100538.25;;;7.73;100.00
18504;BME280;9381;54.244;10.074;2023-01-10T20:09:32;100538.00;;;7.62;100.00
18504;BME280;9381;54.244;10.074;2023-01-10T20:14:32;100532.00;;;7.60;100.00
18504;BME280;9381;54.244;10.074;2023-01-10T20:19:33;100527.47;;;7.73;100.00
18504;BME280;9381;54.244;10.074;2023-01-10T20:24:33;100511.28;;;7.60;100.00
18504;BME280;9381;54.244;10.074;2023-01-10T20:29:36;100527.81;;;7.44;100.00
18504;BME280;9381;54.244;10.074;2023-01-10T20:34:36;100498.06;;;7.65;100.00
18504;BME280;9381;54.244;10.074;2023-01-10T20:39:37;100479.59;;;7.56;100.00
18504;BME280;9381;54.244;10.074;2023-01-10T20:44:37;100475.22;;;7.48;100.00
18504;BME280;9381;54.244;10.074;2023-01-10T20:49:39;100467.34;;;7.40;100.00
18504;BME280;9381;54.244;10.074;2023-01-10T20:54:39;100441.28;;;7.41;100.00
18504;BME280;9381;54.244;10.074;2023-01-10T20:59:39;100423.00;;;7.23;100.00
18504;BME280;9381;54.244;10.074;2023-01-10T21:04:40;100411.00;;;7.19;100.00
18504;BME280;9381;54.244;10.074;2023-01-10T21:09:40;100389.47;;;7.19;100.00
18504;BME280;9381;54.244;10.074;2023-01-10T21:14:40;100388.88;;;7.17;100.00
18504;BME280;9381;54.244;10.074;2023-01-10T21:19:41;100374.31;;;7.05;100.00
18504;BME280;9381;54.244;10.074;2023-01-10T21:24:41;100360.25;;;7.03;100.00
18504;BME280;9381;54.244;10.074;2023-01-10T21:29:42;100366.25;;;7.05;100.00
18504;BME280;9381;54.244;10.074;2023-01-10T21:34:42;100336.50;;;7.07;100.00
18504;BME280;9381;54.244;10.074;2023-01-10T21:39:42;100319.50;;;6.93;100.00
18504;BME280;9381;54.244;10.074;2023-01-10T21:44:43;100314.75;;;6.95;100.00
18504;BME280;9381;54.244;10.074;2023-01-10T21:49:43;100284.78;;;6.98;100.00
18504;BME280;9381;54.244;10.074;2023-01-10T21:54:43;100280.84;;;7.01;100.00
18504;BME280;9381;54.244;10.074;2023-01-10T21:59:44;100288.47;;;6.97;100.00
18504;BME280;9381;54.244;10.074;2023-01-10T22:04:52;100299.66;;;7.07;100.00
18504;BME280;9381;54.244;10.074;2023-01-10T22:09:53;100287.25;;;7.06;100.00
18504;BME280;9381;54.244;10.074;2023-01-10T22:14:53;100305.88;;;7.01;100.00
18504;BME280;9381;54.244;10.074;2023-01-10T22:19:54;100276.91;;;7.10;100.00
18504;BME280;9381;54.244;10.074;2023-01-10T22:24:54;100257.06;;;6.98;100.00
18504;BME280;9381;54.244;10.074;2023-01-10T22:29:54;100255.78;;;6.87;100.00
18504;BME280;9381;54.244;10.074;2023-01-10T22:34:55;100249.16;;;6.83;100.00
18504;BME280;9381;54.244;10.074;2023-01-10T22:39:55;100232.44;;;6.94;100.00
18504;BME280;9381;54.244;10.074;2023-01-10T22:44:55;100202.88;;;6.94;100.00
18504;BME280;9381;54.244;10.074;2023-01-10T22:49:56;100190.69;;;6.98;100.00
18504;BME280;9381;54.244;10.074;2023-01-10T22:54:56;100177.25;;;6.98;100.00
18504;BME280;9381;54.244;10.074;2023-01-10T22:59:56;100157.38;;;6.86;100.00
18504;BME280;9381;54.244;10.074;2023-01-10T23:04:57;100145.38;;;6.95;100.00
18504;BME280;9381;54.244;10.074;2023-01-10T23:09:57;100128.41;;;6.88;100.00
18504;BME280;9381;54.244;10.074;2023-01-10T23:14:57;100126.16;;;6.98;100.00
18504;BME280;9381;54.244;10.074;2023-01-10T23:19:58;100103.63;;;6.99;100.00
18504;BME280;9381;54.244;10.074;2023-01-10T23:24:58;100096.19;;;6.95;100.00
18504;BME280;9381;54.244;10.074;2023-01-10T23:29:58;100104.84;;;6.97;100.00
18504;BME280;9381;54.244;10.074;2023-01-10T23:34:59;100093.66;;;7.06;100.00
18504;BME280;9381;54.244;10.074;2023-01-10T23:39:59;100083.31;;;7.10;100.00
18504;BME280;9381;54.244;10.074;2023-01-10T23:44:59;100075.25;;;7.03;100.00
18504;BME280;9381;54.244;10.074;2023-01-10T23:50:00;100070.09;;;7.08;100.00
18504;BME280;9381;54.244;10.074;2023-01-10T23:55:00;100034.31;;;7.01;100.00
